Time;durP1;ratioP1;P1;durP2;ratioP2;P2;SDS_P1;SDS_P2;PMS_P1;PMS_P2;Temp;Humidity;BMP_temperature;BMP_pressure;BME280_temperature;BME280_humidity;BME280_pressure;Samples;Min_cycle;Max_cycle;Signal;HPM_P1;HPM_P2
2022/04/13 00:01:49;;;;;;;10.70;8.77;;;13.20;99.90;;;;;;5024226;28;20053;-56
2022/04/13 00:04:17;;;;;;;12.43;9.18;;;13.10;99.90;;;;;;5021980;28;20140;-56
2022/04/13 00:06:46;;;;;;;12.47;10.00;;;13.10;99.90;;;;;;5022046;28;20055;-56
2022/04/13 00:09:13;;;;;;;11.43;9.60;;;13.10;99.90;;;;;;5032664;28;20401;-56
2022/04/13 00:11:39;;;;;;;13.32;9.60;;;13.00;99.90;;;;;;5029037;28;20119;-56
2022/04/13 00:14:06;;;;;;;11.50;9.50;;;13.00;99.90;;;;;;5022357;28;20049;-57
2022/04/13 00:16:32;;;;;;;11.88;9.57;;;12.90;99.90;;;;;;5016452;28;20045;-56
2022/04/13 00:18:59;;;;;;;10.05;9.05;;;12.90;99.90;;;;;;5016137;28;20042;-58
2022/04/13 00:21:25;;;;;;;12.40;9.13;;;12.80;99.90;;;;;;5033835;28;20055;-58
2022/04/13 00:23:51;;;;;;;11.25;9.88;;;12.70;99.90;;;;;;5024927;28;20148;-57
2022/04/13 00:26:17;;;;;;;11.70;9.15;;;12.60;99.90;;;;;;5022025;28;20458;-57
2022/04/13 00:28:43;;;;;;;11.60;10.40;;;12.50;99.90;;;;;;5021442;28;20061;-57
2022/04/13 00:31:09;;;;;;;13.05;10.48;;;12.40;99.90;;;;;;5004268;28;20064;-58
2022/04/13 00:33:36;;;;;;;12.55;10.82;;;12.40;99.90;;;;;;5003823;28;20409;-58
2022/04/13 00:36:02;;;;;;;11.43;9.82;;;12.30;99.90;;;;;;5004711;28;20046;-58
2022/04/13 00:38:29;;;;;;;12.85;10.13;;;12.20;99.90;;;;;;5019525;28;20116;-58
2022/04/13 00:40:56;;;;;;;11.57;9.98;;;12.20;99.90;;;;;;5005514;28;20695;-58
2022/04/13 00:43:24;;;;;;;11.10;10.00;;;12.20;99.90;;;;;;5022300;28;20077;-56
2022/04/13 00:45:52;;;;;;;11.70;10.05;;;12.20;99.90;;;;;;5022090;28;20448;-56
2022/04/13 00:48:26;;;;;;;18.85;11.45;;;12.20;99.90;;;;;;5013081;28;20116;-56
2022/04/13 00:50:58;;;;;;;13.27;9.85;;;12.20;99.90;;;;;;4991062;28;20553;-56
2022/04/13 00:53:25;;;;;;;11.30;10.00;;;12.20;99.90;;;;;;5019660;28;20049;-55
2022/04/13 00:55:55;;;;;;;12.43;9.98;;;12.20;99.90;;;;;;5022085;28;20072;-55
2022/04/13 00:58:28;;;;;;;12.73;10.07;;;12.20;99.90;;;;;;5019838;28;20060;-55
2022/04/13 01:00:55;;;;;;;11.23;9.98;;;12.20;99.90;;;;;;4990731;28;20049;-56
2022/04/13 01:03:24;;;;;;;11.05;9.85;;;12.20;99.90;;;;;;5025578;28;20114;-55
2022/04/13 01:05:53;;;;;;;12.15;10.85;;;12.20;99.90;;;;;;5021275;28;20057;-56
2022/04/13 01:08:20;;;;;;;13.55;11.13;;;12.20;99.90;;;;;;4982830;28;20133;-56
2022/04/13 01:10:49;;;;;;;14.63;11.75;;;12.20;99.90;;;;;;5024575;28;20057;-55
2022/04/13 01:13:17;;;;;;;12.65;11.30;;;12.30;99.90;;;;;;5027107;28;20111;-56
2022/04/13 01:15:44;;;;;;;13.95;12.43;;;12.30;99.90;;;;;;5024735;28;20110;-56
2022/04/13 01:18:13;;;;;;;13.57;11.65;;;12.30;99.90;;;;;;5024422;28;20931;-56
2022/04/13 01:20:53;;;;;;;13.18;11.52;;;12.30;99.90;;;;;;5022991;28;20050;-55
2022/04/13 01:23:23;;;;;;;13.95;12.35;;;12.30;99.90;;;;;;5023233;28;20058;-56
2022/04/13 01:25:55;;;;;;;13.43;11.80;;;12.30;99.90;;;;;;5025301;28;20099;-56
2022/04/13 01:28:23;;;;;;;13.25;11.75;;;12.30;99.90;;;;;;5023274;28;20065;-57
2022/04/13 01:30:49;;;;;;;14.30;12.55;;;12.20;99.90;;;;;;5025406;28;20053;-56
2022/04/13 01:33:15;;;;;;;13.27;11.55;;;12.20;99.90;;;;;;5024527;28;20041;-56
2022/04/13 01:35:42;;;;;;;13.88;11.63;;;12.20;99.90;;;;;;5010769;28;20389;-56
2022/04/13 01:38:08;;;;;;;15.80;11.98;;;12.20;99.90;;;;;;5025313;28;20169;-55
2022/04/13 01:40:35;;;;;;;14.75;13.25;;;12.20;99.90;;;;;;5007294;28;20849;-56
2022/04/13 01:43:01;;;;;;;14.00;12.52;;;12.20;99.90;;;;;;5005275;28;20493;-56
2022/04/13 01:45:27;;;;;;;14.27;11.45;;;12.20;99.90;;;;;;5025139;28;20118;-55
2022/04/13 01:47:53;;;;;;;13.85;12.23;;;12.10;99.90;;;;;;5026074;28;20064;-55
2022/04/13 01:50:21;;;;;;;13.93;11.80;;;12.10;99.90;;;;;;5020903;28;20723;-58
2022/04/13 01:52:48;;;;;;;14.23;12.73;;;12.00;99.90;;;;;;5022589;28;20752;-58
2022/04/13 01:55:15;;;;;;;14.73;11.68;;;12.00;99.90;;;;;;5028355;28;20042;-58
2022/04/13 01:57:42;;;;;;;13.23;11.85;;;11.90;99.90;;;;;;5024482;28;20084;-58
2022/04/13 02:00:11;;;;;;;14.55;12.50;;;11.90;99.90;;;;;;5016106;28;20416;-58
2022/04/13 02:02:37;;;;;;;14.32;12.88;;;11.80;99.90;;;;;;4985875;28;20038;-58
2022/04/13 02:05:04;;;;;;;14.20;12.68;;;11.80;99.90;;;;;;5007284;28;20084;-58
2022/04/13 02:07:30;;;;;;;15.43;12.93;;;11.70;99.90;;;;;;5022048;28;20049;-58
2022/04/13 02:09:56;;;;;;;12.57;11.27;;;11.70;99.90;;;;;;5024463;28;20049;-58
2022/04/13 02:12:22;;;;;;;13.23;11.82;;;11.60;99.90;;;;;;5016135;28;20408;-59
2022/04/13 02:14:49;;;;;;;13.25;11.95;;;11.60;99.90;;;;;;5007643;28;20053;-58
2022/04/13 02:17:16;;;;;;;13.95;12.65;;;11.60;99.90;;;;;;5015705;28;20041;-56
2022/04/13 02:19:44;;;;;;;13.65;12.25;;;11.50;99.90;;;;;;5023232;28;20053;-56
2022/04/13 02:22:10;;;;;;;13.50;12.10;;;11.50;99.90;;;;;;5025486;28;20523;-56
2022/04/13 02:24:37;;;;;;;14.15;12.07;;;11.50;99.90;;;;;;5024888;28;20056;-56
2022/04/13 02:27:03;;;;;;;17.45;12.50;;;11.50;99.90;;;;;;5018290;28;20053;-58
2022/04/13 02:29:29;;;;;;;13.68;12.27;;;11.50;99.90;;;;;;5003581;28;20124;-56
2022/04/13 02:31:55;;;;;;;14.55;12.75;;;11.40;99.90;;;;;;5023371;28;20102;-55
2022/04/13 02:34:21;;;;;;;13.38;11.98;;;11.50;99.90;;;;;;5023358;28;20057;-55
2022/04/13 02:36:47;;;;;;;16.65;12.80;;;11.40;99.90;;;;;;4988002;28;20088;-56
2022/04/13 02:39:13;;;;;;;13.48;12.15;;;11.40;99.90;;;;;;5022612;28;20055;-55
2022/04/13 02:41:40;;;;;;;14.95;13.30;;;11.40;99.90;;;;;;5023471;28;20053;-56
2022/04/13 02:44:06;;;;;;;15.55;11.88;;;11.40;99.90;;;;;;5005367;28;20077;-58
2022/04/13 02:46:32;;;;;;;13.35;11.73;;;11.30;99.90;;;;;;5015547;28;20053;-57
2022/04/13 02:48:58;;;;;;;13.57;12.13;;;11.40;99.90;;;;;;5011787;28;20053;-58
2022/04/13 02:51:24;;;;;;;15.57;13.50;;;11.30;99.90;;;;;;5023431;28;20146;-58
2022/04/13 02:53:50;;;;;;;14.70;13.18;;;11.30;99.90;;;;;;5024517;28;20064;-58
2022/04/13 02:56:17;;;;;;;17.08;13.88;;;11.30;99.90;;;;;;5022937;28;20057;-57
2022/04/13 02:58:43;;;;;;;16.23;12.48;;;11.30;99.90;;;;;;5024217;28;20115;-57
2022/04/13 03:01:09;;;;;;;14.55;12.73;;;11.30;99.90;;;;;;5023328;28;20081;-58
2022/04/13 03:03:35;;;;;;;14.10;11.85;;;11.20;99.90;;;;;;5023577;28;20057;-59
2022/04/13 03:06:01;;;;;;;14.95;13.48;;;11.20;99.90;;;;;;5019826;28;20144;-58
2022/04/13 03:08:27;;;;;;;17.65;14.07;;;11.10;99.90;;;;;;5015594;28;20055;-59
2022/04/13 03:10:53;;;;;;;16.27;14.05;;;11.10;99.90;;;;;;5024471;28;20049;-59
2022/04/13 03:13:20;;;;;;;16.08;13.95;;;11.10;99.90;;;;;;5007086;28;20119;-58
2022/04/13 03:15:46;;;;;;;19.40;15.38;;;11.10;99.90;;;;;;5023957;28;20444;-59
2022/04/13 03:18:12;;;;;;;16.30;14.23;;;11.10;99.90;;;;;;5021434;28;20480;-59
2022/04/13 03:20:38;;;;;;;16.30;14.52;;;11.10;99.90;;;;;;5023829;28;20057;-58
2022/04/13 03:23:04;;;;;;;16.50;14.43;;;11.10;99.90;;;;;;5023243;28;20054;-58
2022/04/13 03:25:31;;;;;;;17.88;14.05;;;11.10;99.90;;;;;;5006620;28;20531;-59
2022/04/13 03:27:57;;;;;;;18.30;15.05;;;11.20;99.90;;;;;;5010277;28;20057;-58
2022/04/13 03:30:23;;;;;;;18.98;14.30;;;11.20;99.90;;;;;;5017782;28;20057;-58
2022/04/13 03:32:52;;;;;;;15.07;13.48;;;11.30;99.90;;;;;;5023225;28;20049;-58
2022/04/13 03:35:18;;;;;;;18.65;14.77;;;11.30;99.90;;;;;;5022487;28;20158;-58
2022/04/13 03:37:45;;;;;;;21.85;14.40;;;11.30;99.90;;;;;;4989626;28;20045;-58
2022/04/13 03:40:12;;;;;;;15.38;13.75;;;11.40;99.90;;;;;;5019940;28;20053;-56
2022/04/13 03:42:40;;;;;;;18.05;14.02;;;11.40;99.90;;;;;;5022868;28;20114;-56
2022/04/13 03:45:14;;;;;;;18.95;13.52;;;11.40;99.90;;;;;;5022364;28;20068;-56
2022/04/13 03:47:41;;;;;;;19.85;13.27;;;11.30;99.90;;;;;;5020455;28;20045;-54
2022/04/13 03:50:09;;;;;;;15.32;12.75;;;11.30;99.90;;;;;;5019169;28;20065;-56
2022/04/13 03:52:36;;;;;;;16.52;13.05;;;11.30;99.90;;;;;;5021653;28;20049;-55
2022/04/13 03:55:05;;;;;;;15.20;13.63;;;11.30;99.90;;;;;;5022554;28;20107;-56
2022/04/13 03:57:31;;;;;;;16.58;14.18;;;11.30;99.90;;;;;;5019927;28;20388;-55
2022/04/13 03:59:58;;;;;;;18.02;14.57;;;11.30;99.90;;;;;;5015523;28;20064;-55
2022/04/13 04:02:24;;;;;;;16.73;15.02;;;11.30;99.90;;;;;;5019489;28;20049;-55
2022/04/13 04:04:50;;;;;;;18.10;14.10;;;11.30;99.90;;;;;;5015706;28;20045;-57
2022/04/13 04:07:16;;;;;;;20.73;14.25;;;11.30;99.90;;;;;;5022963;28;20045;-56
2022/04/13 04:09:43;;;;;;;18.02;14.60;;;11.30;99.90;;;;;;5019367;28;20093;-56
2022/04/13 04:12:10;;;;;;;17.02;15.23;;;11.30;99.90;;;;;;5003471;28;20141;-56
2022/04/13 04:14:36;;;;;;;21.88;16.67;;;11.30;99.90;;;;;;5029526;28;20053;-58
2022/04/13 04:17:03;;;;;;;19.65;15.65;;;11.30;99.90;;;;;;5022550;28;20065;-58
2022/04/13 04:19:29;;;;;;;21.25;15.93;;;11.30;99.90;;;;;;5020721;28;20456;-59
2022/04/13 04:21:56;;;;;;;18.55;14.07;;;11.20;99.90;;;;;;5020893;28;20048;-56
2022/04/13 04:24:22;;;;;;;18.20;15.30;;;11.20;99.90;;;;;;5017584;28;20584;-56
2022/04/13 04:26:49;;;;;;;20.90;15.23;;;11.20;99.90;;;;;;5005368;28;20568;-56
2022/04/13 04:29:15;;;;;;;18.08;15.70;;;11.20;99.90;;;;;;5017037;28;20041;-57
2022/04/13 04:31:50;;;;;;;20.23;15.93;;;11.10;99.90;;;;;;5002230;28;20057;-56
2022/04/13 04:34:17;;;;;;;21.23;14.77;;;11.00;99.90;;;;;;5023163;28;20053;-56
2022/04/13 04:36:44;;;;;;;19.80;15.75;;;11.00;99.90;;;;;;5026257;28;20098;-56
2022/04/13 04:39:10;;;;;;;19.65;15.45;;;10.90;99.90;;;;;;5007641;28;20053;-56
2022/04/13 04:41:36;;;;;;;19.17;16.27;;;10.80;99.90;;;;;;5025496;28;20112;-56
2022/04/13 04:44:03;;;;;;;23.15;17.17;;;10.80;99.90;;;;;;5025656;28;20049;-58
2022/04/13 04:46:29;;;;;;;18.10;15.48;;;10.80;99.90;;;;;;5025331;28;20124;-59
2022/04/13 04:48:55;;;;;;;22.52;17.35;;;10.80;99.90;;;;;;5019088;28;20042;-58
2022/04/13 04:51:21;;;;;;;19.67;16.02;;;10.80;99.90;;;;;;5018915;28;20072;-58
2022/04/13 04:53:48;;;;;;;23.05;17.23;;;10.90;99.90;;;;;;5023436;28;20069;-58
2022/04/13 04:56:15;;;;;;;19.58;16.25;;;10.80;99.90;;;;;;5025430;28;20053;-56
2022/04/13 04:58:41;;;;;;;21.63;17.25;;;10.80;99.90;;;;;;5027112;28;20045;-56
2022/04/13 05:01:09;;;;;;;20.05;16.27;;;10.80;99.90;;;;;;5026312;28;20063;-56
2022/04/13 05:03:38;;;;;;;18.67;16.27;;;10.80;99.90;;;;;;5025133;28;20056;-55
2022/04/13 05:06:04;;;;;;;24.02;18.85;;;10.80;99.90;;;;;;5024715;28;20060;-55
2022/04/13 05:08:30;;;;;;;23.60;16.80;;;10.80;99.90;;;;;;5009185;28;20053;-56
2022/04/13 05:10:56;;;;;;;25.38;19.05;;;10.80;99.90;;;;;;5025038;28;20080;-56
2022/04/13 05:13:22;;;;;;;21.50;17.05;;;10.90;99.90;;;;;;5023498;28;20213;-59
2022/04/13 05:15:49;;;;;;;21.45;16.83;;;10.90;99.90;;;;;;5040056;28;20505;-58
2022/04/13 05:18:15;;;;;;;21.52;17.58;;;10.90;99.90;;;;;;5020372;28;20377;-59
2022/04/13 05:20:41;;;;;;;20.23;17.33;;;10.90;99.90;;;;;;5021912;28;20049;-58
2022/04/13 05:23:07;;;;;;;21.92;19.50;;;10.90;99.90;;;;;;5005952;28;20103;-59
2022/04/13 05:25:33;;;;;;;25.90;18.58;;;11.00;99.90;;;;;;5026318;28;20102;-59
2022/04/13 05:27:59;;;;;;;22.63;17.10;;;11.10;99.90;;;;;;5021228;28;20125;-58
2022/04/13 05:30:25;;;;;;;21.95;15.77;;;11.10;99.90;;;;;;5026460;28;20053;-59
2022/04/13 05:32:57;;;;;;;18.73;15.80;;;11.10;99.90;;;;;;5009503;28;20098;-58
2022/04/13 05:35:28;;;;;;;20.05;17.25;;;11.00;99.90;;;;;;5023378;28;20053;-59
2022/04/13 05:37:55;;;;;;;19.92;16.00;;;11.00;99.90;;;;;;5011295;28;20108;-58
2022/04/13 05:40:23;;;;;;;20.77;16.50;;;11.00;99.90;;;;;;5014470;28;20060;-58
2022/04/13 05:42:51;;;;;;;21.27;17.38;;;11.00;99.90;;;;;;5006568;28;20034;-55
2022/04/13 05:45:17;;;;;;;20.25;16.85;;;11.00;99.90;;;;;;5016984;28;20049;-58
2022/04/13 05:47:43;;;;;;;28.52;18.33;;;11.10;99.90;;;;;;5014143;28;20077;-59
2022/04/13 05:50:11;;;;;;;22.88;19.23;;;11.10;99.90;;;;;;5017311;28;20058;-59
2022/04/13 05:52:39;;;;;;;25.05;20.10;;;11.10;99.90;;;;;;5024619;28;20045;-58
2022/04/13 05:55:06;;;;;;;26.38;20.48;;;11.10;99.90;;;;;;5026261;28;20715;-59
2022/04/13 05:57:32;;;;;;;29.77;20.10;;;11.30;99.90;;;;;;5025556;28;20114;-58
2022/04/13 05:59:58;;;;;;;26.77;19.90;;;11.30;99.90;;;;;;5023114;28;20049;-59
2022/04/13 06:02:25;;;;;;;28.00;20.52;;;11.40;99.90;;;;;;5023376;28;20132;-59
2022/04/13 06:04:51;;;;;;;21.48;19.02;;;11.40;99.90;;;;;;5021418;28;20219;-61
2022/04/13 06:07:18;;;;;;;25.65;20.73;;;11.50;99.90;;;;;;5021132;28;20064;-58
2022/04/13 06:09:44;;;;;;;27.17;21.40;;;11.60;99.90;;;;;;5011463;28;20528;-57
2022/04/13 06:12:10;;;;;;;26.77;20.67;;;11.60;99.90;;;;;;5005234;28;20084;-59
2022/04/13 06:14:36;;;;;;;24.65;20.52;;;11.70;99.90;;;;;;5010794;28;20042;-59
2022/04/13 06:17:03;;;;;;;29.08;21.65;;;11.80;99.90;;;;;;5005327;28;20054;-59
2022/04/13 06:19:29;;;;;;;25.27;20.27;;;11.90;99.90;;;;;;5018385;28;20082;-55
2022/04/13 06:21:55;;;;;;;22.23;19.42;;;12.10;99.90;;;;;;5008141;28;20077;-56
2022/04/13 06:24:21;;;;;;;27.02;20.55;;;12.40;99.90;;;;;;5007328;28;20052;-56
2022/04/13 06:26:47;;;;;;;24.45;18.58;;;12.50;99.90;;;;;;4987467;28;20196;-56
2022/04/13 06:29:13;;;;;;;25.83;20.00;;;12.80;99.90;;;;;;5007749;28;20531;-56
2022/04/13 06:31:39;;;;;;;24.67;19.50;;;12.90;99.90;;;;;;5010948;28;20057;-56
2022/04/13 06:34:05;;;;;;;21.05;18.58;;;13.20;99.90;;;;;;4994660;28;20049;-57
2022/04/13 06:36:31;;;;;;;22.00;18.90;;;13.40;99.90;;;;;;5014616;28;20108;-56
2022/04/13 06:38:57;;;;;;;24.00;19.38;;;13.60;99.90;;;;;;5009786;28;20042;-57
2022/04/13 06:41:23;;;;;;;22.45;18.92;;;13.70;99.90;;;;;;4972426;28;20050;-53
2022/04/13 06:43:52;;;;;;;21.85;18.52;;;13.70;99.90;;;;;;5012167;28;20571;-56
2022/04/13 06:46:19;;;;;;;24.48;17.85;;;13.70;99.90;;;;;;5011062;28;20100;-55
2022/04/13 06:48:45;;;;;;;24.30;18.63;;;13.70;99.90;;;;;;5011918;28;20046;-57
2022/04/13 06:51:11;;;;;;;26.00;18.58;;;13.80;99.90;;;;;;5011992;28;20066;-59
2022/04/13 06:53:37;;;;;;;22.55;17.30;;;13.90;99.90;;;;;;5007623;28;20048;-59
2022/04/13 06:56:04;;;;;;;21.63;16.50;;;13.90;99.90;;;;;;5008691;28;20401;-59
2022/04/13 06:58:30;;;;;;;18.75;15.63;;;14.10;99.90;;;;;;4991179;28;20073;-59
2022/04/13 07:00:57;;;;;;;20.67;16.10;;;14.30;99.90;;;;;;5006360;28;20680;-59
2022/04/13 07:03:24;;;;;;;21.50;15.70;;;14.40;99.90;;;;;;5015600;28;20417;-59
2022/04/13 07:05:50;;;;;;;18.23;15.20;;;14.50;99.90;;;;;;5007025;28;20049;-57
2022/04/13 07:08:17;;;;;;;20.48;14.43;;;14.60;99.90;;;;;;5009669;28;20489;-58
2022/04/13 07:10:43;;;;;;;20.35;15.07;;;14.90;99.90;;;;;;5011034;28;20898;-58
2022/04/13 07:13:11;;;;;;;15.70;13.27;;;15.00;99.90;;;;;;4987711;28;20050;-58
2022/04/13 07:15:37;;;;;;;17.33;12.93;;;15.20;99.90;;;;;;5002825;28;20123;-61
2022/04/13 07:18:04;;;;;;;15.32;12.18;;;15.40;99.90;;;;;;5004420;28;20052;-58
2022/04/13 07:20:30;;;;;;;14.20;12.27;;;15.50;99.90;;;;;;5007861;28;20520;-56
2022/04/13 07:22:56;;;;;;;16.77;12.57;;;15.70;99.90;;;;;;5007336;28;20048;-55
2022/04/13 07:25:23;;;;;;;14.63;12.13;;;15.90;99.90;;;;;;5009216;28;20056;-58
2022/04/13 07:27:49;;;;;;;13.88;11.50;;;16.00;99.90;;;;;;4970848;28;20474;-58
2022/04/13 07:30:16;;;;;;;15.23;11.60;;;16.40;99.90;;;;;;5015700;28;20045;-58
2022/04/13 07:32:46;;;;;;;24.60;20.67;;;16.80;99.90;;;;;;5008902;28;20048;-59
2022/04/13 07:35:13;;;;;;;18.27;11.35;;;16.70;99.90;;;;;;5010397;28;20056;-60
2022/04/13 07:37:40;;;;;;;17.13;11.55;;;16.70;99.90;;;;;;5012893;28;20089;-58
2022/04/13 07:40:12;;;;;;;17.73;11.57;;;16.40;99.90;;;;;;5016519;28;20123;-58
2022/04/13 07:42:39;;;;;;;17.23;12.88;;;16.40;99.90;;;;;;5006853;28;20064;-58
2022/04/13 07:45:06;;;;;;;16.58;12.52;;;16.20;99.90;;;;;;5021689;28;20512;-58
2022/04/13 07:47:33;;;;;;;18.90;12.18;;;16.00;99.90;;;;;;5023666;28;20053;-57
2022/04/13 07:49:59;;;;;;;16.42;12.20;;;15.90;99.90;;;;;;5020417;28;20042;-58
2022/04/13 07:52:25;;;;;;;18.48;14.23;;;15.70;99.90;;;;;;5015828;28;20065;-58
2022/04/13 07:54:51;;;;;;;18.05;13.30;;;15.70;99.90;;;;;;5004512;28;20053;-56
2022/04/13 07:57:17;;;;;;;19.38;13.60;;;15.70;99.90;;;;;;5023011;28;20103;-56
2022/04/13 07:59:44;;;;;;;20.50;14.40;;;15.80;99.90;;;;;;5022390;28;20542;-55
2022/04/13 08:02:10;;;;;;;19.58;15.07;;;15.80;99.90;;;;;;4987254;28;20045;-57
2022/04/13 08:04:36;;;;;;;21.48;15.85;;;15.70;99.90;;;;;;5009189;28;20053;-57
2022/04/13 08:07:03;;;;;;;20.40;14.95;;;15.60;99.90;;;;;;5015530;28;20045;-57
2022/04/13 08:09:29;;;;;;;18.65;15.25;;;15.70;99.90;;;;;;5016463;28;20068;-56
2022/04/13 08:11:56;;;;;;;20.05;14.38;;;15.70;99.90;;;;;;5006150;28;20053;-57
2022/04/13 08:14:23;;;;;;;16.15;13.40;;;15.90;99.90;;;;;;5020417;28;20115;-58
2022/04/13 08:16:50;;;;;;;17.67;14.80;;;16.10;99.90;;;;;;5020854;28;20507;-57
2022/04/13 08:19:16;;;;;;;18.70;13.98;;;16.20;99.90;;;;;;5020703;28;20112;-57
2022/04/13 08:21:42;;;;;;;23.40;14.60;;;16.10;99.90;;;;;;5014873;28;20049;-57
2022/04/13 08:24:08;;;;;;;16.88;13.05;;;16.00;99.90;;;;;;4986340;28;20556;-57
2022/04/13 08:26:35;;;;;;;16.40;13.95;;;16.20;99.90;;;;;;5018215;28;20528;-58
2022/04/13 08:29:01;;;;;;;17.48;11.98;;;16.30;99.90;;;;;;5001560;28;20057;-58
2022/04/13 08:31:27;;;;;;;19.13;12.30;;;16.20;99.90;;;;;;5000693;28;20080;-57
2022/04/13 08:33:54;;;;;;;17.73;12.70;;;16.30;99.90;;;;;;5017004;28;20049;-57
2022/04/13 08:36:20;;;;;;;16.38;11.13;;;16.40;99.90;;;;;;5005613;28;20152;-57
2022/04/13 08:38:46;;;;;;;15.63;9.52;;;16.70;99.90;;;;;;5022973;28;20057;-58
2022/04/13 08:41:18;;;;;;;14.55;9.50;;;16.80;99.90;;;;;;5021589;28;20337;-57
2022/04/13 08:43:51;;;;;;;13.77;9.27;;;17.00;99.90;;;;;;5011320;28;20461;-57
2022/04/13 08:46:23;;;;;;;13.90;9.32;;;17.30;99.90;;;;;;5004096;28;20053;-56
2022/04/13 08:48:52;;;;;;;13.05;9.00;;;17.40;99.90;;;;;;5008173;28;20050;-58
2022/04/13 08:51:21;;;;;;;11.80;9.57;;;17.70;99.90;;;;;;5021818;28;20054;-58
2022/04/13 08:53:55;;;;;;;14.25;10.13;;;17.60;99.90;;;;;;5020103;28;20832;-57
2022/04/13 08:56:22;;;;;;;14.88;8.75;;;18.10;99.90;;;;;;5021215;28;20053;-57
2022/04/13 08:58:51;;;;;;;14.18;9.23;;;18.60;99.90;;;;;;5003234;28;20159;-57
2022/04/13 09:01:36;;;;;;;15.93;9.10;;;18.30;99.90;;;;;;5021817;28;20567;-57
2022/04/13 09:04:07;;;;;;;14.38;9.70;;;18.60;99.90;;;;;;5013041;28;20053;-57
2022/04/13 09:06:34;;;;;;;14.48;9.10;;;18.60;99.90;;;;;;5022651;28;20046;-57
2022/04/13 09:09:01;;;;;;;11.80;8.90;;;18.90;99.90;;;;;;5000370;28;20096;-57
2022/04/13 09:11:28;;;;;;;12.00;8.10;;;19.20;99.90;;;;;;4992451;28;20707;-57
2022/04/13 09:13:54;;;;;;;12.98;7.50;;;19.20;99.90;;;;;;5004687;28;20545;-57
2022/04/13 09:16:20;;;;;;;8.88;6.88;;;19.40;99.90;;;;;;5007107;28;20397;-56
2022/04/13 09:18:46;;;;;;;11.30;7.15;;;19.40;99.90;;;;;;4985689;28;20065;-57
2022/04/13 09:21:17;;;;;;;10.27;6.45;;;20.00;99.90;;;;;;5018083;28;20049;-57
2022/04/13 09:23:43;;;;;;;8.67;5.47;;;20.10;99.90;;;;;;5022281;28;20460;-56
2022/04/13 09:26:10;;;;;;;7.63;5.75;;;20.40;99.90;;;;;;5022937;28;20115;-57
2022/04/13 09:28:37;;;;;;;8.38;5.65;;;20.70;99.90;;;;;;5006174;28;20785;-57
2022/04/13 09:31:04;;;;;;;9.10;5.70;;;20.60;99.90;;;;;;5016989;28;20053;-56
2022/04/13 09:33:31;;;;;;;8.68;5.70;;;20.20;99.90;;;;;;5014954;28;20077;-57
2022/04/13 09:35:57;;;;;;;8.52;4.97;;;20.60;99.90;;;;;;5023791;28;20041;-56
2022/04/13 09:38:24;;;;;;;9.52;5.68;;;20.50;99.90;;;;;;4997397;28;20049;-57
2022/04/13 09:40:54;;;;;;;10.85;5.97;;;20.40;99.90;;;;;;5024053;28;20045;-57
2022/04/13 09:43:24;;;;;;;8.00;5.65;;;20.80;99.90;;;;;;5012951;28;20455;-57
2022/04/13 09:45:52;;;;;;;8.57;4.93;;;20.60;99.90;;;;;;4992401;28;20048;-56
2022/04/13 09:48:20;;;;;;;9.35;5.07;;;20.70;99.90;;;;;;5010834;28;20081;-56
2022/04/13 09:50:48;;;;;;;7.85;4.63;;;21.00;99.90;;;;;;5024997;28;20100;-56
2022/04/13 09:53:16;;;;;;;9.48;4.80;;;21.40;99.90;;;;;;5007150;28;20136;-56
2022/04/13 09:55:49;;;;;;;9.73;4.32;;;21.30;99.90;;;;;;5022276;28;20535;-57
2022/04/13 09:58:18;;;;;;;6.60;4.90;;;21.50;99.90;;;;;;5023858;28;20619;-57
2022/04/13 10:00:48;;;;;;;9.63;5.35;;;20.90;99.90;;;;;;5023130;28;20515;-57
2022/04/13 10:03:15;;;;;;;8.23;4.80;;;20.60;99.90;;;;;;5008530;28;20056;-57
2022/04/13 10:05:44;;;;;;;9.98;4.82;;;20.70;99.90;;;;;;5020262;28;20060;-56
2022/04/13 10:08:11;;;;;;;8.70;5.32;;;21.20;99.90;;;;;;5017618;28;20057;-57
2022/04/13 10:10:43;;;;;;;7.65;5.15;;;21.60;94.90;;;;;;5009591;28;20052;-58
2022/04/13 10:13:09;;;;;;;9.57;5.43;;;21.60;77.10;;;;;;5008016;28;20050;-57
2022/04/13 10:15:36;;;;;;;6.72;3.88;;;21.50;77.80;;;;;;5013118;28;20046;-57
2022/04/13 10:18:04;;;;;;;7.93;4.30;;;21.40;77.30;;;;;;5018191;28;20489;-56
2022/04/13 10:20:44;;;;;;;8.05;5.00;;;20.90;71.10;;;;;;5015781;28;20060;-57
2022/04/13 10:23:10;;;;;;;11.43;3.58;;;21.00;72.30;;;;;;5003750;28;20054;-57
2022/04/13 10:25:37;;;;;;;4.95;3.17;;;20.60;75.20;;;;;;5005810;28;20053;-56
2022/04/13 10:28:03;;;;;;;6.65;4.07;;;20.40;76.00;;;;;;4980454;28;20456;-57
2022/04/13 10:30:35;;;;;;;6.38;4.05;;;20.80;77.80;;;;;;5022336;28;20135;-59
2022/04/13 10:33:05;;;;;;;;;;;21.10;68.20;;;;;;5021036;28;20060;-57
2022/04/13 10:35:34;;;;;;;9.25;4.22;;;21.40;70.60;;;;;;4987661;28;19925;-51
2022/04/13 10:38:01;;;;;;;4.85;2.97;;;22.40;69.90;;;;;;5003806;28;20080;-57
2022/04/13 10:40:31;;;;;;;5.18;3.22;;;22.50;64.00;;;;;;5006814;28;20135;-57
2022/04/13 10:43:01;;;;;;;7.30;3.10;;;23.00;60.40;;;;;;5012411;28;20053;-56
2022/04/13 10:45:29;;;;;;;6.72;3.88;;;23.00;59.70;;;;;;4992649;28;20528;-57
2022/04/13 10:47:58;;;;;;;6.38;3.25;;;23.20;57.50;;;;;;5017234;28;20053;-57
2022/04/13 10:50:36;;;;;;;7.45;4.10;;;23.00;57.30;;;;;;5016172;28;20053;-57
2022/04/13 10:53:29;;;;;;;5.45;2.65;;;23.30;57.10;;;;;;5002882;28;20077;-57
2022/04/13 10:56:03;;;;;;;5.25;3.00;;;23.30;54.50;;;;;;5012907;28;20100;-56
2022/04/13 10:58:38;;;;;;;7.20;3.28;;;23.00;56.20;;;;;;5006813;28;20092;-56
2022/04/13 11:01:11;;;;;;;5.70;3.15;;;22.30;58.10;;;;;;5014866;28;20049;-56
2022/04/13 11:03:38;;;;;;;5.32;2.58;;;21.90;60.50;;;;;;4994595;28;20049;-57
2022/04/13 11:06:06;;;;;;;5.65;2.75;;;21.80;62.50;;;;;;5005528;28;20421;-56
2022/04/13 11:08:51;;;;;;;5.53;3.75;;;21.30;61.70;;;;;;5009633;28;20188;-57
2022/04/13 11:11:27;;;;;;;5.75;3.40;;;21.20;65.30;;;;;;4992489;28;20050;-57
2022/04/13 11:13:54;;;;;;;6.07;3.17;;;20.90;73.60;;;;;;5004410;28;20056;-57
2022/04/13 11:16:21;;;;;;;6.28;2.90;;;20.90;68.40;;;;;;5010371;28;20070;-57
2022/04/13 11:19:06;;;;;;;7.40;4.85;;;20.70;74.00;;;;;;5012242;28;20045;-56
2022/04/13 11:21:50;;;;;;;9.02;5.10;;;20.60;85.50;;;;;;5015211;28;20123;-57
2022/04/13 11:24:40;;;;;;;8.75;5.28;;;20.20;87.40;;;;;;5008792;28;20049;-57
2022/04/13 11:27:08;;;;;;;8.38;4.75;;;20.40;90.50;;;;;;5023061;28;20082;-57
2022/04/13 11:29:58;;;;;;;8.32;6.20;;;20.60;93.20;;;;;;5007030;28;20041;-57
2022/04/13 11:32:28;;;;;;;8.95;6.38;;;20.70;91.80;;;;;;4996265;28;20050;-57
2022/04/13 11:34:54;;;;;;;8.07;5.78;;;21.10;91.50;;;;;;5011243;28;20129;-57
2022/04/13 11:37:25;;;;;;;8.13;5.43;;;20.80;88.30;;;;;;5008817;28;20132;-57
2022/04/13 11:40:10;;;;;;;6.30;3.05;;;20.70;94.10;;;;;;4991488;28;20050;-57
2022/04/13 11:42:37;;;;;;;6.15;3.10;;;20.40;80.40;;;;;;5012318;28;20037;-57
2022/04/13 11:45:09;;;;;;;7.57;3.53;;;20.40;80.10;;;;;;5011198;28;20077;-57
2022/04/13 11:47:45;;;;;;;7.55;2.83;;;20.30;71.80;;;;;;5031670;28;20131;-57
2022/04/13 11:50:12;;;;;;;7.65;3.72;;;19.90;72.40;;;;;;4992629;28;20049;-56
2022/04/13 11:52:51;;;;;;;7.72;4.28;;;19.70;77.90;;;;;;5011501;28;20131;-57
2022/04/13 11:55:26;;;;;;;8.27;4.40;;;19.60;91.10;;;;;;5008246;28;20088;-57
2022/04/13 11:57:59;;;;;;;9.55;3.95;;;19.60;93.80;;;;;;5008398;28;21329;-56
2022/04/13 12:00:41;;;;;;;6.18;3.72;;;19.40;95.30;;;;;;5008683;28;20394;-56
2022/04/13 12:03:17;;;;;;;6.75;3.33;;;19.50;92.30;;;;;;5031105;28;20624;-56
2022/04/13 12:05:52;;;;;;;9.32;3.08;;;19.80;95.30;;;;;;5009536;28;20071;-56
2022/04/13 12:08:35;;;;;;;7.63;3.05;;;20.20;93.10;;;;;;4993200;28;20041;-57
2022/04/13 12:11:38;;;;;;;6.38;2.53;;;20.20;91.80;;;;;;5018664;28;20057;-56
2022/04/13 12:14:04;;;;;;;6.45;2.58;;;20.20;78.70;;;;;;5007755;28;20046;-56
2022/04/13 12:16:36;;;;;;;7.82;2.80;;;19.90;76.60;;;;;;5008231;28;20077;-56
2022/04/13 12:19:10;;;;;;;7.95;2.80;;;20.00;79.80;;;;;;5007210;28;20052;-56
2022/04/13 12:21:40;;;;;;;6.13;2.00;;;20.10;86.50;;;;;;5009828;28;20046;-57
2022/04/13 12:24:10;;;;;;;7.05;2.13;;;20.20;74.20;;;;;;5012128;28;20385;-56
2022/04/13 12:26:39;;;;;;;10.18;2.45;;;20.00;73.90;;;;;;5009843;28;20430;-57
2022/04/13 12:29:14;;;;;;;8.93;3.00;;;20.00;76.80;;;;;;5011351;28;20054;-57
2022/04/13 12:31:48;;;;;;;9.20;3.90;;;19.70;79.80;;;;;;5006381;28;20053;-56
2022/04/13 12:34:20;;;;;;;10.30;3.63;;;19.30;91.40;;;;;;5007664;28;20049;-56
2022/04/13 12:37:01;;;;;;;9.77;4.53;;;19.20;96.40;;;;;;5011207;28;20054;-56
2022/04/13 12:39:35;;;;;;;9.98;4.88;;;18.90;99.90;;;;;;5009014;28;20677;-55